Time;durP1;ratioP1;P1;durP2;ratioP2;P2;SDS_P1;SDS_P2;PMS_P1;PMS_P2;Temp;Humidity;BMP_temperature;BMP_pressure;BME280_temperature;BME280_humidity;BME280_pressure;Samples;Min_cycle;Max_cycle;Signal;HPM_P1;HPM_P2
2023/12/29 00:02:13;;;;;;;18.57;11.73;;;3.00;99.90;;;;;;5055424;28;20178;-78
2023/12/29 00:04:39;;;;;;;21.23;12.80;;;3.00;99.90;;;;;;5054727;28;20177;-77
2023/12/29 00:07:04;;;;;;;16.50;12.43;;;3.00;99.90;;;;;;5055481;28;20236;-76
2023/12/29 00:09:37;;;;;;;17.10;12.53;;;3.00;99.90;;;;;;5059280;28;20238;-76
2023/12/29 00:12:04;;;;;;;19.93;13.47;;;3.00;99.90;;;;;;5062407;28;20509;-79
2023/12/29 00:14:30;;;;;;;20.70;13.10;;;2.90;99.90;;;;;;5061081;28;20186;-76
2023/12/29 00:16:57;;;;;;;22.27;12.93;;;2.80;99.90;;;;;;5056554;28;20193;-80
2023/12/29 00:19:22;;;;;;;16.87;12.57;;;2.70;99.90;;;;;;5054873;28;20229;-76
2023/12/29 00:21:48;;;;;;;20.93;12.67;;;2.70;99.90;;;;;;5070561;28;20168;-75
2023/12/29 00:24:14;;;;;;;17.47;12.40;;;2.80;99.90;;;;;;5056374;28;20179;-78
2023/12/29 00:26:40;;;;;;;22.43;13.97;;;2.70;99.90;;;;;;5053872;28;20181;-77
2023/12/29 00:29:06;;;;;;;21.97;13.33;;;2.70;99.90;;;;;;5054911;28;20204;-78
2023/12/29 00:31:32;;;;;;;17.60;12.93;;;2.70;99.90;;;;;;5055752;28;20525;-75
2023/12/29 00:33:58;;;;;;;17.40;12.07;;;2.70;99.90;;;;;;5055682;28;20186;-75
2023/12/29 00:36:24;;;;;;;19.00;13.50;;;2.50;99.90;;;;;;5070434;28;20190;-79
2023/12/29 00:38:50;;;;;;;16.17;12.50;;;2.50;99.90;;;;;;5057320;28;20174;-76
2023/12/29 00:41:16;;;;;;;18.17;12.03;;;2.60;99.90;;;;;;5055964;28;20185;-76
2023/12/29 00:43:41;;;;;;;18.70;11.93;;;2.50;99.90;;;;;;5066620;28;20182;-77
2023/12/29 00:46:08;;;;;;;19.87;12.93;;;2.60;99.90;;;;;;5056848;28;20537;-78
2023/12/29 00:48:34;;;;;;;19.33;12.57;;;2.50;99.90;;;;;;5054876;28;20207;-78
2023/12/29 00:51:04;;;;;;;18.07;12.40;;;2.50;99.90;;;;;;5054924;28;20198;-75
2023/12/29 00:53:31;;;;;;;18.23;11.47;;;2.50;99.90;;;;;;5054555;28;20174;-76
2023/12/29 00:55:58;;;;;;;14.27;11.13;;;2.50;99.90;;;;;;5054737;28;20179;-77
2023/12/29 00:58:24;;;;;;;17.50;12.27;;;2.50;99.90;;;;;;5054977;28;20180;-75
2023/12/29 01:00:50;;;;;;;16.40;11.53;;;2.50;99.90;;;;;;5055969;28;20181;-76
2023/12/29 01:03:17;;;;;;;16.93;11.87;;;2.50;99.90;;;;;;5056067;28;20221;-79
2023/12/29 01:05:43;;;;;;;17.47;12.20;;;2.50;99.90;;;;;;5053776;28;20177;-75
2023/12/29 01:08:09;;;;;;;15.93;11.57;;;2.60;99.90;;;;;;5055684;28;20284;-76
2023/12/29 01:10:35;;;;;;;19.87;11.60;;;2.60;99.90;;;;;;5074540;28;20188;-78
2023/12/29 01:13:01;;;;;;;17.37;11.87;;;2.60;99.90;;;;;;5072829;28;20197;-77
2023/12/29 01:15:28;;;;;;;16.90;11.70;;;2.70;99.90;;;;;;5073093;28;20180;-79
2023/12/29 01:17:54;;;;;;;14.37;10.63;;;2.70;99.90;;;;;;5058849;28;20202;-76
2023/12/29 01:20:19;;;;;;;15.73;11.33;;;2.80;99.90;;;;;;5068830;28;20163;-77
2023/12/29 01:22:45;;;;;;;17.63;10.67;;;2.70;99.90;;;;;;5062340;28;20182;-79
2023/12/29 01:25:12;;;;;;;18.17;11.30;;;2.70;99.90;;;;;;5054396;28;20186;-78
2023/12/29 01:27:38;;;;;;;15.30;10.83;;;2.60;99.90;;;;;;5054487;28;20281;-78
2023/12/29 01:30:05;;;;;;;14.80;10.80;;;2.60;99.90;;;;;;5059423;28;20240;-79
2023/12/29 01:32:30;;;;;;;13.87;10.03;;;2.60;99.90;;;;;;5055827;28;20170;-80
2023/12/29 01:34:56;;;;;;;14.07;10.93;;;2.60;99.90;;;;;;5053857;28;20201;-77
2023/12/29 01:37:22;;;;;;;14.17;9.87;;;2.50;99.90;;;;;;5054805;28;20176;-79
2023/12/29 01:39:48;;;;;;;16.03;10.20;;;2.50;99.90;;;;;;5054973;28;20278;-77
2023/12/29 01:42:13;;;;;;;14.53;10.83;;;2.60;99.90;;;;;;5053707;28;20177;-75
2023/12/29 01:44:39;;;;;;;15.57;10.30;;;2.50;99.90;;;;;;5053866;28;20706;-77
2023/12/29 01:47:11;;;;;;;13.07;10.27;;;2.50;99.90;;;;;;5054001;28;20276;-80
2023/12/29 01:49:38;;;;;;;14.37;10.63;;;2.40;99.90;;;;;;5053969;28;20538;-76
2023/12/29 01:52:04;;;;;;;13.70;10.50;;;2.40;99.90;;;;;;5053620;28;20271;-77
2023/12/29 01:54:35;;;;;;;17.93;11.43;;;2.40;99.90;;;;;;5053781;28;20680;-77
2023/12/29 01:57:02;;;;;;;15.57;10.63;;;2.40;99.90;;;;;;5057241;28;20208;-76
2023/12/29 01:59:28;;;;;;;14.63;10.57;;;2.50;99.90;;;;;;5061234;28;20171;-77
2023/12/29 02:01:57;;;;;;;14.17;10.67;;;2.50;99.90;;;;;;5066329;28;20249;-78
2023/12/29 02:04:27;;;;;;;13.70;9.73;;;2.50;99.90;;;;;;5060632;28;20190;-78
2023/12/29 02:06:54;;;;;;;16.97;10.47;;;2.50;99.90;;;;;;5053759;28;20686;-77
2023/12/29 02:09:19;;;;;;;14.20;10.20;;;2.50;99.90;;;;;;5054026;28;20217;-77
2023/12/29 02:11:46;;;;;;;12.30;9.67;;;2.50;99.90;;;;;;5053104;28;20200;-75
2023/12/29 02:14:12;;;;;;;12.67;9.97;;;2.50;99.90;;;;;;5053481;28;20270;-77
2023/12/29 02:16:52;;;;;;;12.63;9.63;;;2.40;99.90;;;;;;5053241;28;20679;-77
2023/12/29 02:19:25;;;;;;;14.13;10.27;;;2.40;99.90;;;;;;5053753;28;20167;-77
2023/12/29 02:21:51;;;;;;;13.60;9.83;;;2.40;99.90;;;;;;5054640;28;20185;-80
2023/12/29 02:24:17;;;;;;;10.57;8.80;;;2.50;99.90;;;;;;5054094;28;20192;-76
2023/12/29 02:26:49;;;;;;;11.77;8.63;;;2.50;99.90;;;;;;5053506;28;20289;-76
2023/12/29 02:29:20;;;;;;;10.77;8.50;;;2.50;99.90;;;;;;5053986;28;20207;-77
2023/12/29 02:31:51;;;;;;;10.33;8.20;;;2.50;99.90;;;;;;5053868;28;20208;-78
2023/12/29 02:34:19;;;;;;;10.70;7.90;;;2.40;99.90;;;;;;5053170;28;20244;-77
2023/12/29 02:36:46;;;;;;;10.13;7.90;;;2.40;99.90;;;;;;5053616;28;20231;-76
2023/12/29 02:39:12;;;;;;;10.07;7.73;;;2.50;99.90;;;;;;5060299;28;20313;-78
2023/12/29 02:41:39;;;;;;;11.27;5.77;;;2.60;99.90;;;;;;5065626;28;20652;-77
2023/12/29 02:44:04;;;;;;;5.03;4.30;;;2.60;99.90;;;;;;5053366;28;20250;-80
2023/12/29 02:46:30;;;;;;;4.80;3.83;;;2.70;99.90;;;;;;5053256;28;20222;-78
2023/12/29 02:48:56;;;;;;;6.93;5.30;;;3.00;99.90;;;;;;5053151;28;20209;-79
2023/12/29 02:51:22;;;;;;;6.97;6.23;;;3.20;99.90;;;;;;5061577;28;20182;-76
2023/12/29 02:53:49;;;;;;;10.77;8.27;;;3.30;99.90;;;;;;5066461;28;20256;-77
2023/12/29 02:56:15;;;;;;;12.50;8.83;;;3.20;99.90;;;;;;5053470;28;20182;-76
2023/12/29 02:58:41;;;;;;;13.50;8.67;;;3.10;99.90;;;;;;5052413;28;20227;-78
2023/12/29 03:01:06;;;;;;;13.83;9.03;;;2.90;99.90;;;;;;5053830;28;20208;-77
2023/12/29 03:03:32;;;;;;;13.40;9.70;;;2.80;99.90;;;;;;5054187;28;20178;-78
2023/12/29 03:05:58;;;;;;;14.40;9.93;;;2.70;99.90;;;;;;5050928;28;20174;-76
2023/12/29 03:08:23;;;;;;;11.27;9.50;;;2.60;99.90;;;;;;5056089;28;20374;-77
2023/12/29 03:10:49;;;;;;;15.97;10.97;;;2.60;99.90;;;;;;5056417;28;20182;-78
2023/12/29 03:13:15;;;;;;;14.27;10.03;;;2.60;99.90;;;;;;5060134;28;20184;-77
2023/12/29 03:15:41;;;;;;;15.57;10.00;;;2.30;99.90;;;;;;5058158;28;20189;-78
2023/12/29 03:18:07;;;;;;;13.17;10.17;;;2.30;99.90;;;;;;5056166;28;20660;-77
2023/12/29 03:20:32;;;;;;;12.47;9.53;;;2.20;99.90;;;;;;5058409;28;20186;-78
2023/12/29 03:22:58;;;;;;;14.30;10.17;;;2.20;99.90;;;;;;5060473;28;20172;-77
2023/12/29 03:25:24;;;;;;;15.77;10.73;;;2.20;99.90;;;;;;5056352;28;20201;-79
2023/12/29 03:27:50;;;;;;;14.57;10.20;;;2.10;99.90;;;;;;5056155;28;20216;-78
2023/12/29 03:30:15;;;;;;;16.60;10.47;;;2.00;99.90;;;;;;5057007;28;20252;-78
2023/12/29 03:32:41;;;;;;;13.33;9.37;;;2.00;99.90;;;;;;5060772;28;20242;-77
2023/12/29 03:35:08;;;;;;;14.63;9.10;;;2.00;99.90;;;;;;5075727;28;20380;-77
2023/12/29 03:37:34;;;;;;;11.43;8.73;;;2.00;99.90;;;;;;5068635;28;20179;-76
2023/12/29 03:40:00;;;;;;;12.70;8.97;;;2.00;99.90;;;;;;5073454;28;20214;-77
2023/12/29 03:42:25;;;;;;;11.97;9.50;;;1.90;99.90;;;;;;5059869;28;20585;-75
2023/12/29 03:44:51;;;;;;;13.13;9.33;;;1.90;99.90;;;;;;5067548;28;20661;-78
2023/12/29 03:47:17;;;;;;;14.33;9.17;;;1.90;99.90;;;;;;5068466;28;20180;-80
2023/12/29 03:49:42;;;;;;;12.57;8.43;;;1.80;99.90;;;;;;5071893;28;20214;-78
2023/12/29 03:52:08;;;;;;;15.60;9.20;;;1.80;99.90;;;;;;5063043;28;20270;-77
2023/12/29 03:54:34;;;;;;;12.63;9.00;;;1.70;99.90;;;;;;5055892;28;20176;-80
2023/12/29 03:57:00;;;;;;;13.37;9.23;;;1.70;99.90;;;;;;5055858;28;20253;-78
2023/12/29 03:59:25;;;;;;;11.97;9.03;;;1.70;99.90;;;;;;5056516;28;20173;-77
2023/12/29 04:01:51;;;;;;;11.83;8.67;;;1.70;99.90;;;;;;5055078;28;20203;-76
2023/12/29 04:04:17;;;;;;;12.60;9.00;;;1.70;99.90;;;;;;5054830;28;20176;-76
2023/12/29 04:06:42;;;;;;;11.20;9.03;;;1.60;99.90;;;;;;5055048;28;20234;-77
2023/12/29 04:09:08;;;;;;;14.17;9.00;;;1.50;99.90;;;;;;5053601;28;20262;-77
2023/12/29 04:11:34;;;;;;;13.70;9.23;;;1.50;99.90;;;;;;5055444;28;20244;-76
2023/12/29 04:14:00;;;;;;;11.40;8.63;;;1.50;99.90;;;;;;5054978;28;20627;-79
2023/12/29 04:16:26;;;;;;;13.17;9.33;;;1.50;99.90;;;;;;5054780;28;20176;-78
2023/12/29 04:18:52;;;;;;;14.47;9.87;;;1.50;99.90;;;;;;5053772;28;20623;-79
2023/12/29 04:21:18;;;;;;;11.97;9.03;;;1.50;99.90;;;;;;5054533;28;20262;-79
2023/12/29 04:23:43;;;;;;;14.70;9.47;;;1.50;99.90;;;;;;5048343;28;20755;-77
2023/12/29 04:26:09;;;;;;;14.93;9.53;;;1.50;99.90;;;;;;5039922;28;20191;-78
2023/12/29 04:28:35;;;;;;;12.93;9.30;;;1.50;99.90;;;;;;5062641;28;20203;-77
2023/12/29 04:31:01;;;;;;;14.03;9.57;;;1.50;99.90;;;;;;5072925;28;20174;-78
2023/12/29 04:33:26;;;;;;;10.17;8.40;;;1.40;99.90;;;;;;5055232;28;20182;-78
2023/12/29 04:35:52;;;;;;;10.50;8.67;;;1.40;99.90;;;;;;5055396;28;20186;-78
2023/12/29 04:38:19;;;;;;;11.83;8.97;;;1.40;99.90;;;;;;5055457;28;20259;-75
2023/12/29 04:40:49;;;;;;;12.43;8.53;;;1.50;99.90;;;;;;5072305;28;20183;-79
2023/12/29 04:43:15;;;;;;;13.90;8.57;;;1.50;99.90;;;;;;5061359;28;20228;-78
2023/12/29 04:45:40;;;;;;;11.97;7.73;;;1.50;99.90;;;;;;5055047;28;20213;-78
2023/12/29 04:48:07;;;;;;;11.10;8.80;;;1.60;99.90;;;;;;5054697;28;20229;-76
2023/12/29 04:50:33;;;;;;;10.37;7.43;;;1.50;99.90;;;;;;5054260;28;20176;-77
2023/12/29 04:52:59;;;;;;;10.13;7.97;;;1.40;99.90;;;;;;5053851;28;20214;-77
2023/12/29 04:55:25;;;;;;;10.13;8.03;;;1.40;99.90;;;;;;5055435;28;20194;-76
2023/12/29 04:57:50;;;;;;;11.67;7.90;;;1.50;99.90;;;;;;5068433;28;20183;-76
2023/12/29 05:00:16;;;;;;;9.73;7.43;;;1.50;99.90;;;;;;5055397;28;20184;-76
2023/12/29 05:02:44;;;;;;;10.10;7.83;;;1.40;99.90;;;;;;5054603;28;20191;-78
2023/12/29 05:05:10;;;;;;;10.20;8.07;;;1.30;99.90;;;;;;5054619;28;20633;-78
2023/12/29 05:07:35;;;;;;;10.30;8.10;;;1.30;99.90;;;;;;5054119;28;20226;-78
2023/12/29 05:10:01;;;;;;;10.77;7.30;;;1.40;99.90;;;;;;5053963;28;20197;-77
2023/12/29 05:12:27;;;;;;;11.00;7.70;;;1.40;99.90;;;;;;5054195;28;20190;-78
2023/12/29 05:14:53;;;;;;;10.37;7.87;;;1.40;99.90;;;;;;5054107;28;20190;-76
2023/12/29 05:17:18;;;;;;;7.90;6.97;;;1.40;99.90;;;;;;5060599;28;20199;-76
2023/12/29 05:19:44;;;;;;;12.43;6.77;;;1.40;99.90;;;;;;5062562;28;20604;-76
2023/12/29 05:22:12;;;;;;;10.60;7.53;;;1.40;99.90;;;;;;5054080;28;20177;-75
2023/12/29 05:24:39;;;;;;;8.27;7.27;;;1.40;99.90;;;;;;5054677;28;20571;-75
2023/12/29 05:27:05;;;;;;;10.87;7.17;;;1.40;99.90;;;;;;5052224;28;20176;-76
2023/12/29 05:29:30;;;;;;;8.40;7.07;;;1.40;99.90;;;;;;5053378;28;20574;-75
2023/12/29 05:31:56;;;;;;;7.93;6.63;;;1.30;99.90;;;;;;5056668;28;20643;-78
2023/12/29 05:34:22;;;;;;;9.53;7.37;;;1.30;99.90;;;;;;5057335;28;20265;-78
2023/12/29 05:36:48;;;;;;;10.90;7.07;;;1.40;99.90;;;;;;5056033;28;20183;-77
2023/12/29 05:39:14;;;;;;;11.37;6.73;;;1.30;99.90;;;;;;5055694;28;20179;-76
2023/12/29 05:41:39;;;;;;;9.27;6.77;;;1.30;99.90;;;;;;5062152;28;20203;-77
2023/12/29 05:44:05;;;;;;;9.23;7.53;;;1.30;99.90;;;;;;5058451;28;20175;-77
2023/12/29 05:46:31;;;;;;;10.83;7.27;;;1.30;99.90;;;;;;5057454;28;20192;-76
2023/12/29 05:48:57;;;;;;;9.57;6.80;;;1.30;99.90;;;;;;5055148;28;20328;-78
2023/12/29 05:51:23;;;;;;;9.30;7.10;;;1.40;99.90;;;;;;5053890;28;20612;-77
2023/12/29 05:53:48;;;;;;;9.23;6.57;;;1.40;99.90;;;;;;5058589;28;20547;-79
2023/12/29 05:56:14;;;;;;;8.03;6.30;;;1.50;99.90;;;;;;5055993;28;20214;-77
2023/12/29 05:58:46;;;;;;;8.33;5.87;;;1.50;99.90;;;;;;5060902;28;20190;-75
2023/12/29 06:01:12;;;;;;;6.53;5.93;;;1.60;99.90;;;;;;5072480;28;20198;-75
2023/12/29 06:03:38;;;;;;;9.73;6.03;;;1.60;99.90;;;;;;5069124;28;20243;-80
2023/12/29 06:06:04;;;;;;;9.53;6.57;;;1.70;99.90;;;;;;5057721;28;20189;-78
2023/12/29 06:08:30;;;;;;;10.93;7.33;;;1.60;99.90;;;;;;5061006;28;20314;-77
2023/12/29 06:10:56;;;;;;;9.20;6.67;;;1.60;99.90;;;;;;5055255;28;20171;-79
2023/12/29 06:13:23;;;;;;;9.63;6.60;;;1.60;99.90;;;;;;5051882;28;20185;-78
2023/12/29 06:15:48;;;;;;;10.23;7.33;;;1.70;99.90;;;;;;5053160;28;20176;-84
2023/12/29 06:18:14;;;;;;;11.63;7.13;;;1.70;99.90;;;;;;5054470;28;20171;-82
2023/12/29 06:20:40;;;;;;;9.53;7.00;;;1.70;99.90;;;;;;5055712;28;20595;-83
2023/12/29 06:23:06;;;;;;;11.37;6.80;;;1.60;99.90;;;;;;5053124;28;20176;-82
2023/12/29 06:25:32;;;;;;;9.40;7.00;;;1.60;99.90;;;;;;5052080;28;20190;-80
2023/12/29 06:27:58;;;;;;;8.50;7.00;;;1.50;99.90;;;;;;5054418;28;20196;-83
2023/12/29 06:30:24;;;;;;;12.80;6.90;;;1.60;99.90;;;;;;5053686;28;20195;-83
2023/12/29 06:32:51;;;;;;;10.47;7.27;;;1.50;99.90;;;;;;5054051;28;20179;-80
2023/12/29 06:35:17;;;;;;;9.40;6.80;;;1.40;99.90;;;;;;5053680;28;20187;-78
2023/12/29 06:37:43;;;;;;;9.57;7.33;;;1.30;99.90;;;;;;5055852;28;20196;-76
2023/12/29 06:40:09;;;;;;;9.10;7.43;;;1.40;99.90;;;;;;5063728;28;20531;-76
2023/12/29 06:42:35;;;;;;;12.00;7.73;;;1.40;99.90;;;;;;5076316;28;20195;-79
2023/12/29 06:45:01;;;;;;;11.37;6.93;;;1.40;99.90;;;;;;5066507;28;20281;-78
2023/12/29 06:47:27;;;;;;;12.87;7.43;;;1.40;99.90;;;;;;5059685;28;20184;-76
2023/12/29 06:49:53;;;;;;;9.50;7.23;;;1.40;99.90;;;;;;5060113;28;20216;-77
2023/12/29 06:52:19;;;;;;;11.17;7.70;;;1.30;99.90;;;;;;5057169;28;20180;-81
2023/12/29 06:54:44;;;;;;;11.33;8.53;;;1.30;99.90;;;;;;5069676;28;20267;-78
2023/12/29 06:57:10;;;;;;;12.53;8.93;;;1.30;99.90;;;;;;5064170;28;20186;-80
2023/12/29 06:59:36;;;;;;;12.30;8.00;;;1.30;99.90;;;;;;5057534;28;20176;-78
2023/12/29 07:02:02;;;;;;;9.33;7.33;;;1.30;99.90;;;;;;5057868;28;20708;-77
2023/12/29 07:04:28;;;;;;;13.33;8.03;;;1.30;99.90;;;;;;5057509;28;20182;-80
2023/12/29 07:06:54;;;;;;;12.53;7.70;;;1.30;99.90;;;;;;5057635;28;20190;-78
2023/12/29 07:09:20;;;;;;;9.50;7.73;;;1.30;99.90;;;;;;5059299;28;20203;-78
2023/12/29 07:11:49;;;;;;;15.50;8.60;;;1.30;99.90;;;;;;5056516;28;20187;-79
2023/12/29 07:14:15;;;;;;;11.27;7.13;;;1.40;99.90;;;;;;5057471;28;20627;-78
2023/12/29 07:16:41;;;;;;;10.73;8.10;;;1.40;99.90;;;;;;5068232;28;20225;-78
2023/12/29 07:19:07;;;;;;;9.83;8.10;;;1.30;99.90;;;;;;5069611;28;20179;-79
2023/12/29 07:21:34;;;;;;;12.03;7.90;;;1.30;99.90;;;;;;5064621;28;20209;-78
2023/12/29 07:24:00;;;;;;;12.47;8.57;;;1.30;99.90;;;;;;5057865;28;20219;-78
2023/12/29 07:26:25;;;;;;;10.80;7.77;;;1.40;99.90;;;;;;5057390;28;20195;-77
2023/12/29 07:28:54;;;;;;;11.47;7.97;;;1.30;99.90;;;;;;5059082;28;20273;-77
2023/12/29 07:31:23;;;;;;;10.57;7.80;;;1.30;99.90;;;;;;5058307;28;20647;-78
2023/12/29 07:33:49;;;;;;;12.00;7.67;;;1.30;99.90;;;;;;5060858;28;20184;-78
2023/12/29 07:36:15;;;;;;;9.67;7.37;;;1.40;99.90;;;;;;5061230;28;20181;-79
2023/12/29 07:38:42;;;;;;;10.67;8.00;;;1.40;99.90;;;;;;5068299;28;20188;-79
2023/12/29 07:41:08;;;;;;;8.90;7.13;;;1.50;99.90;;;;;;5063059;28;20230;-79
2023/12/29 07:43:35;;;;;;;10.13;7.07;;;1.40;99.90;;;;;;5064410;28;20164;-81
2023/12/29 07:46:03;;;;;;;8.57;7.10;;;1.50;99.90;;;;;;5075616;28;20181;-78
2023/12/29 07:48:29;;;;;;;9.73;7.33;;;1.50;99.90;;;;;;5068523;28;20240;-78
2023/12/29 07:50:58;;;;;;;7.60;6.70;;;1.60;99.90;;;;;;5057883;28;20270;-77
2023/12/29 07:53:24;;;;;;;8.60;7.10;;;1.50;99.90;;;;;;5057352;28;20181;-78
2023/12/29 07:55:53;;;;;;;8.90;6.97;;;1.50;99.90;;;;;;5058730;28;20535;-78
2023/12/29 07:58:19;;;;;;;9.43;7.47;;;1.50;99.90;;;;;;5059089;28;20172;-79
2023/12/29 08:00:45;;;;;;;9.43;6.97;;;1.60;99.90;;;;;;5059093;28;20603;-78
2023/12/29 08:03:11;;;;;;;8.87;7.23;;;1.70;99.90;;;;;;5057229;28;20175;-78
2023/12/29 08:05:37;;;;;;;8.40;6.73;;;1.70;99.90;;;;;;5057068;28;20188;-77
2023/12/29 08:08:03;;;;;;;8.10;7.20;;;1.80;99.90;;;;;;5055752;28;20231;-79
2023/12/29 08:10:31;;;;;;;9.27;7.60;;;1.80;99.90;;;;;;5059223;28;20589;-77
2023/12/29 08:12:57;;;;;;;14.57;8.60;;;1.80;99.90;;;;;;5057254;28;20237;-80
2023/12/29 08:15:23;;;;;;;12.47;8.27;;;1.60;99.90;;;;;;5059306;28;20176;-79
2023/12/29 08:17:49;;;;;;;10.03;7.80;;;1.60;99.90;;;;;;5059520;28;20225;-80
2023/12/29 08:20:15;;;;;;;11.53;8.17;;;1.60;99.90;;;;;;5062625;28;20765;-79
2023/12/29 08:22:41;;;;;;;15.27;8.27;;;1.70;99.90;;;;;;5072042;28;20192;-78
2023/12/29 08:25:07;;;;;;;10.73;7.90;;;1.80;99.90;;;;;;5075953;28;20206;-80
2023/12/29 08:27:33;;;;;;;14.77;9.07;;;1.90;99.90;;;;;;5063697;28;20172;-78
2023/12/29 08:29:58;;;;;;;12.43;8.27;;;2.00;99.90;;;;;;5062453;28;20211;-80
2023/12/29 08:32:24;;;;;;;11.60;8.63;;;2.00;99.90;;;;;;5072626;28;20179;-78
2023/12/29 08:34:50;;;;;;;11.90;8.27;;;2.10;99.90;;;;;;5075359;28;20178;-80
2023/12/29 08:37:19;;;;;;;9.73;8.10;;;2.20;99.90;;;;;;5072031;28;20179;-79
2023/12/29 08:39:47;;;;;;;13.70;9.13;;;2.30;99.90;;;;;;5070720;28;20170;-80
2023/12/29 08:42:13;;;;;;;11.70;8.73;;;2.40;99.90;;;;;;5055769;28;20203;-77
2023/12/29 08:44:39;;;;;;;9.53;7.20;;;2.50;99.90;;;;;;5055652;28;20182;-77
2023/12/29 08:47:08;;;;;;;11.67;7.67;;;2.60;99.90;;;;;;5055350;28;20185;-78
2023/12/29 08:49:35;;;;;;;9.93;6.90;;;2.60;99.90;;;;;;5055329;28;20222;-78
2023/12/29 08:52:00;;;;;;;10.50;7.97;;;2.70;99.90;;;;;;5055401;28;20526;-79
2023/12/29 08:54:27;;;;;;;10.33;7.33;;;2.70;99.90;;;;;;5055767;28;20193;-78
2023/12/29 08:56:53;;;;;;;9.10;7.20;;;2.70;99.90;;;;;;5056915;28;20163;-77
2023/12/29 08:59:18;;;;;;;12.33;8.00;;;2.70;99.90;;;;;;5055972;28;20196;-79
2023/12/29 09:01:44;;;;;;;12.40;8.33;;;2.70;99.90;;;;;;5056438;28;20244;-78
2023/12/29 09:04:10;;;;;;;9.60;7.00;;;2.80;99.90;;;;;;5053583;28;20256;-78
2023/12/29 09:06:35;;;;;;;11.40;9.07;;;2.90;99.90;;;;;;5073747;28;20175;-77
2023/12/29 09:09:01;;;;;;;13.13;8.53;;;2.90;99.90;;;;;;5057364;28;20839;-78
2023/12/29 09:11:27;;;;;;;10.50;8.17;;;3.00;99.90;;;;;;5054974;28;20695;-78
2023/12/29 09:13:53;;;;;;;9.97;8.13;;;3.10;99.90;;;;;;5056313;28;20191;-79
2023/12/29 09:16:19;;;;;;;13.43;8.60;;;3.30;99.90;;;;;;5054909;28;20179;-77
2023/12/29 09:18:44;;;;;;;10.93;8.43;;;3.40;99.90;;;;;;5054212;28;20264;-77
2023/12/29 09:21:11;;;;;;;7.87;7.07;;;3.50;99.90;;;;;;5055932;28;20175;-77
2023/12/29 09:23:38;;;;;;;11.87;8.87;;;3.60;99.90;;;;;;5052872;28;20194;-77
2023/12/29 09:26:04;;;;;;;9.40;8.13;;;3.60;99.90;;;;;;5054027;28;20163;-77
2023/12/29 09:28:34;;;;;;;10.63;8.00;;;3.80;99.90;;;;;;5053980;28;20205;-78
2023/12/29 09:31:00;;;;;;;10.67;8.63;;;3.80;99.90;;;;;;5054520;28;20245;-77
2023/12/29 09:33:26;;;;;;;11.63;7.87;;;3.90;99.90;;;;;;5054217;28;20181;-77
2023/12/29 09:35:52;;;;;;;9.17;7.80;;;4.00;99.90;;;;;;5054639;28;20171;-77
2023/12/29 09:38:18;;;;;;;11.23;7.70;;;4.00;99.90;;;;;;5055669;28;20180;-79
2023/12/29 09:40:45;;;;;;;13.10;8.43;;;4.00;99.90;;;;;;5055122;28;20204;-79
2023/12/29 09:43:12;;;;;;;10.00;8.03;;;4.10;99.90;;;;;;5055881;28;20221;-77
2023/12/29 09:45:38;;;;;;;10.53;7.73;;;4.20;99.90;;;;;;5055408;28;20289;-78
2023/12/29 09:48:07;;;;;;;11.07;8.33;;;4.20;99.90;;;;;;5053125;28;20201;-76
2023/12/29 09:50:35;;;;;;;11.87;7.90;;;4.20;99.90;;;;;;5053451;28;20176;-79
2023/12/29 09:53:03;;;;;;;11.37;8.30;;;4.30;99.90;;;;;;5062650;28;20240;-77
2023/12/29 09:55:31;;;;;;;9.27;7.97;;;4.30;99.90;;;;;;5060803;28;20176;-78
2023/12/29 09:58:00;;;;;;;10.13;8.93;;;4.40;99.90;;;;;;5053724;28;20263;-78
2023/12/29 10:00:26;;;;;;;12.97;8.53;;;4.40;99.90;;;;;;5054678;28;20180;-77
2023/12/29 10:02:55;;;;;;;12.53;8.50;;;4.40;99.90;;;;;;5055592;28;20708;-78
2023/12/29 10:05:21;;;;;;;9.13;8.20;;;4.50;99.90;;;;;;5054143;28;20184;-79
2023/12/29 10:07:48;;;;;;;11.90;8.90;;;4.50;99.90;;;;;;5053765;28;20217;-76
2023/12/29 10:10:17;;;;;;;10.13;8.37;;;4.60;99.90;;;;;;5063228;28;20241;-77
2023/12/29 10:12:44;;;;;;;11.93;8.63;;;4.70;99.90;;;;;;5061063;28;20184;-76
2023/12/29 10:15:19;;;;;;;11.50;9.10;;;4.80;99.90;;;;;;5062761;28;20275;-79
2023/12/29 10:18:14;;;;;;;13.63;9.27;;;4.80;99.90;;;;;;5065778;28;20169;-78
2023/12/29 10:20:53;;;;;;;14.53;9.30;;;4.80;99.90;;;;;;5060225;28;20177;-78
2023/12/29 10:23:24;;;;;;;12.40;9.63;;;4.90;99.90;;;;;;5056725;28;20173;-77
2023/12/29 10:25:51;;;;;;;15.67;8.90;;;5.00;99.90;;;;;;5056965;28;20234;-78
2023/12/29 10:28:18;;;;;;;16.63;8.57;;;5.00;99.90;;;;;;5054383;28;20205;-77
2023/12/29 10:30:44;;;;;;;11.53;8.97;;;5.10;99.90;;;;;;5054257;28;20167;-79
2023/12/29 10:33:09;;;;;;;12.10;9.23;;;5.10;99.90;;;;;;5055267;28;20587;-78
2023/12/29 10:35:38;;;;;;;15.30;11.30;;;5.20;99.90;;;;;;5056816;28;20205;-77
2023/12/29 10:38:12;;;;;;;16.07;11.00;;;5.20;99.90;;;;;;5059793;28;20175;-78
2023/12/29 10:40:38;;;;;;;15.40;9.77;;;5.20;99.90;;;;;;5058195;28;20174;-78
2023/12/29 10:43:07;;;;;;;12.27;9.70;;;5.30;99.90;;;;;;5058314;28;20169;-78
2023/12/29 10:45:33;;;;;;;12.43;9.53;;;5.40;99.90;;;;;;5074609;28;20232;-78
2023/12/29 10:48:02;;;;;;;13.17;9.50;;;5.40;99.90;;;;;;5072535;28;20169;-78
2023/12/29 10:50:28;;;;;;;15.77;9.13;;;5.50;99.90;;;;;;5057421;28;20170;-77
2023/12/29 10:53:18;;;;;;;13.13;9.10;;;5.50;99.90;;;;;;5073619;28;20184;-77
2023/12/29 10:55:44;;;;;;;11.87;8.37;;;5.50;99.90;;;;;;5054703;28;20183;-77
2023/12/29 10:58:10;;;;;;;11.73;7.70;;;5.60;99.90;;;;;;5052297;28;20277;-76
2023/12/29 11:00:36;;;;;;;9.10;7.60;;;5.70;99.90;;;;;;5055245;28;20177;-77
2023/12/29 11:03:03;;;;;;;9.43;7.60;;;5.70;99.90;;;;;;5052415;28;20650;-79
2023/12/29 11:05:29;;;;;;;10.30;7.37;;;5.80;99.90;;;;;;5053564;28;20177;-78
2023/12/29 11:07:55;;;;;;;8.67;7.07;;;5.80;99.90;;;;;;5052358;28;20668;-78
2023/12/29 11:10:21;;;;;;;9.60;7.30;;;5.90;99.90;;;;;;5053747;28;20183;-78
2023/12/29 11:12:48;;;;;;;10.77;7.97;;;6.00;99.90;;;;;;5067895;28;20179;-76
2023/12/29 11:15:16;;;;;;;8.80;6.97;;;6.00;99.90;;;;;;5053649;28;20182;-77
2023/12/29 11:17:49;;;;;;;9.87;7.83;;;6.10;99.90;;;;;;5053784;28;20531;-79
2023/12/29 11:20:16;;;;;;;9.10;7.23;;;6.20;99.90;;;;;;5053941;28;20209;-78
2023/12/29 11:22:43;;;;;;;9.00;6.90;;;6.20;99.90;;;;;;5053990;28;20181;-79
2023/12/29 11:25:11;;;;;;;9.53;6.73;;;6.20;99.90;;;;;;5054248;28;20638;-77
2023/12/29 11:27:37;;;;;;;9.80;6.70;;;6.30;99.90;;;;;;5056998;28;20205;-78
2023/12/29 11:30:04;;;;;;;9.40;6.03;;;6.40;99.90;;;;;;5060170;28;20203;-78
2023/12/29 11:32:49;;;;;;;8.50;6.50;;;6.50;99.90;;;;;;5056978;28;20181;-78
2023/12/29 11:35:40;;;;;;;8.73;6.60;;;6.50;99.90;;;;;;5056741;28;20175;-79
2023/12/29 11:38:16;;;;;;;8.13;6.00;;;6.60;99.90;;;;;;5054843;28;20237;-77
2023/12/29 11:40:49;;;;;;;7.57;5.90;;;6.60;99.90;;;;;;5055049;28;20263;-77
2023/12/29 11:43:17;;;;;;;8.33;5.60;;;6.70;99.90;;;;;;5056597;28;20164;-78
2023/12/29 11:45:44;;;;;;;6.73;5.87;;;6.70;99.90;;;;;;5055389;28;20183;-76
2023/12/29 11:48:11;;;;;;;9.73;5.80;;;6.80;99.90;;;;;;5060382;28;20191;-80
2023/12/29 11:50:40;;;;;;;6.63;5.80;;;6.80;99.90;;;;;;5070494;28;20284;-77
2023/12/29 11:53:06;;;;;;;10.10;5.70;;;6.90;99.90;;;;;;5060622;28;20512;-79
2023/12/29 11:55:36;;;;;;;6.17;5.53;;;7.00;99.90;;;;;;5057586;28;20269;-79
2023/12/29 11:58:07;;;;;;;7.47;5.47;;;7.10;99.90;;;;;;5055823;28;20287;-77
2023/12/29 12:00:46;;;;;;;9.40;6.00;;;7.10;99.90;;;;;;5056569;28;20156;-77
2023/12/29 12:03:24;;;;;;;9.80;5.90;;;7.20;99.90;;;;;;5055891;28;20548;-77
2023/12/29 12:05:50;;;;;;;6.93;6.13;;;7.20;99.90;;;;;;5055822;28;20630;-78
2023/12/29 12:08:35;;;;;;;10.83;5.97;;;7.20;99.90;;;;;;5055270;28;20321;-78
2023/12/29 12:11:28;;;;;;;12.10;6.80;;;7.30;99.90;;;;;;5055657;28;20246;-80
2023/12/29 12:13:55;;;;;;;8.57;6.43;;;7.40;99.90;;;;;;5055500;28;20176;-78
2023/12/29 12:16:42;;;;;;;7.70;6.53;;;7.40;99.90;;;;;;5056677;28;20280;-80
2023/12/29 12:19:08;;;;;;;9.13;6.40;;;7.40;99.90;;;;;;5057091;28;20190;-78
2023/12/29 12:21:36;;;;;;;6.60;5.37;;;7.40;99.90;;;;;;5056916;28;20176;-79
2023/12/29 12:24:04;;;;;;;7.37;6.47;;;7.50;99.90;;;;;;5055635;28;20221;-77
2023/12/29 12:26:37;;;;;;;8.87;6.27;;;7.50;99.90;;;;;;5055704;28;20167;-79
2023/12/29 12:29:04;;;;;;;7.20;6.43;;;7.60;99.90;;;;;;5065716;28;20207;-77
2023/12/29 12:31:30;;;;;;;14.60;9.23;;;7.60;99.90;;;;;;5066688;28;20246;-79
2023/12/29 12:33:56;;;;;;;7.70;6.83;;;7.70;99.90;;;;;;5060703;28;20182;-78
2023/12/29 12:36:23;;;;;;;9.00;6.53;;;7.80;99.90;;;;;;5068982;28;20177;-78
2023/12/29 12:38:53;;;;;;;6.70;6.00;;;7.90;99.90;;;;;;5068907;28;20191;-77
2023/12/29 12:41:23;;;;;;;8.13;6.20;;;7.90;99.90;;;;;;5058596;28;20243;-77
2023/12/29 12:44:03;;;;;;;7.07;5.50;;;8.00;99.90;;;;;;5056347;28;20161;-77
2023/12/29 12:46:35;;;;;;;6.50;5.90;;;8.00;99.90;;;;;;5056666;28;20684;-77
2023/12/29 12:49:00;;;;;;;6.83;5.67;;;8.10;99.90;;;;;;5056326;28;20207;-77